Time;durP1;ratioP1;P1;durP2;ratioP2;P2;SDS_P1;SDS_P2;PMS_P1;PMS_P2;Temp;Humidity;BMP_temperature;BMP_pressure;BME280_temperature;BME280_humidity;BME280_pressure;Samples;Min_cycle;Max_cycle;Signal;HPM_P1;HPM_P2
2023/02/21 02:15:24;;;;;;;16.55;10.30;;;;;;;8.97;100.00;100579.19;5017659;28;20647;-70
2023/02/21 02:18:21;;;;;;;14.32;9.30;;;;;;;8.97;100.00;100573.78;5014614;28;20252;-68
2023/02/21 02:21:20;;;;;;;16.15;9.85;;;;;;;9.02;100.00;100572.16;5014193;28;20198;-70
2023/02/21 02:24:32;;;;;;;14.15;9.52;;;;;;;9.02;100.00;100580.25;5008756;28;20211;-71
2023/02/21 02:27:40;;;;;;;14.55;9.70;;;;;;;9.01;100.00;100578.56;4999007;28;20870;-71
2023/02/21 02:31:07;;;;;;;15.35;9.38;;;;;;;9.03;100.00;100573.00;5017110;28;20193;-70
2023/02/21 02:34:29;;;;;;;15.13;10.02;;;;;;;9.03;100.00;100560.34;5027666;28;20669;-70
2023/02/21 02:37:12;;;;;;;12.45;9.23;;;;;;;9.12;100.00;100566.38;5033038;28;20212;-71
2023/02/21 02:39:52;;;;;;;15.75;10.20;;;;;;;9.14;100.00;100562.47;5016849;28;20193;-70
2023/02/21 02:42:35;;;;;;;14.18;8.93;;;;;;;9.13;100.00;100554.56;5022715;28;20250;-71
2023/02/21 02:45:14;;;;;;;23.85;10.60;;;;;;;9.18;100.00;100545.84;5034151;28;20193;-71
2023/02/21 02:47:50;;;;;;;13.88;8.32;;;;;;;9.19;100.00;100552.94;5013642;28;20217;-68
2023/02/21 02:50:22;;;;;;;14.73;10.05;;;;;;;9.21;100.00;100553.53;5032168;28;20189;-70
2023/02/21 02:53:00;;;;;;;15.20;10.25;;;;;;;9.22;100.00;100563.31;5007517;28;20696;-70
2023/02/21 02:55:41;;;;;;;14.85;9.23;;;;;;;9.25;100.00;100560.19;5013483;28;20208;-70
2023/02/21 02:58:13;;;;;;;10.85;7.90;;;;;;;9.22;100.00;100556.06;5015604;28;20224;-68
2023/02/21 03:00:48;;;;;;;12.52;9.13;;;;;;;9.23;100.00;100551.50;5033066;28;20217;-70
2023/02/21 03:03:46;;;;;;;13.80;8.63;;;;;;;9.25;100.00;100554.78;5039810;28;20288;-69
2023/02/21 03:06:26;;;;;;;13.83;10.93;;;;;;;9.25;100.00;100550.22;5029233;28;20501;-70
2023/02/21 03:09:07;;;;;;;16.08;9.52;;;;;;;9.29;100.00;100564.19;5042590;28;20458;-72
2023/02/21 03:11:43;;;;;;;13.63;9.60;;;;;;;9.29;100.00;100550.69;5017707;28;20584;-69
2023/02/21 03:14:17;;;;;;;12.50;8.77;;;;;;;9.36;100.00;100551.53;5037425;28;20582;-71
2023/02/21 03:16:52;;;;;;;10.85;9.02;;;;;;;9.39;100.00;100543.03;5011758;28;20416;-71
2023/02/21 03:19:27;;;;;;;16.25;9.63;;;;;;;9.39;100.00;100546.53;5022351;28;20254;-70
2023/02/21 03:22:03;;;;;;;11.70;8.70;;;;;;;9.43;100.00;100557.78;5014861;28;20215;-71
2023/02/21 03:24:36;;;;;;;17.98;10.68;;;;;;;9.45;100.00;100544.91;5029156;28;20201;-71
2023/02/21 03:27:09;;;;;;;18.00;9.50;;;;;;;9.42;100.00;100550.72;5031764;28;20696;-69
2023/02/21 03:30:04;;;;;;;12.60;9.02;;;;;;;9.40;100.00;100556.31;5010083;28;20297;-71
2023/02/21 03:32:38;;;;;;;14.90;10.15;;;;;;;9.41;100.00;100554.44;5018525;28;20698;-70
2023/02/21 03:35:09;;;;;;;11.05;8.05;;;;;;;9.43;100.00;100557.78;5015677;28;20197;-70
2023/02/21 03:37:42;;;;;;;13.10;8.23;;;;;;;9.43;100.00;100555.09;5011320;28;20245;-70
2023/02/21 03:40:16;;;;;;;13.65;9.30;;;;;;;9.45;100.00;100559.25;5015327;28;20296;-71
2023/02/21 03:42:49;;;;;;;18.27;10.57;;;;;;;9.47;100.00;100565.28;5010319;28;20185;-70
2023/02/21 03:45:21;;;;;;;12.83;8.67;;;;;;;9.42;100.00;100559.66;5016125;28;20460;-70
2023/02/21 03:48:04;;;;;;;10.23;8.52;;;;;;;9.43;100.00;100565.91;5027251;28;20508;-69
2023/02/21 03:50:36;;;;;;;9.63;7.50;;;;;;;9.41;100.00;100560.69;5029790;28;20224;-70
2023/02/21 03:53:06;;;;;;;12.65;9.18;;;;;;;9.43;100.00;100561.34;5018108;28;20585;-68
2023/02/21 03:55:40;;;;;;;10.82;8.75;;;;;;;9.42;100.00;100566.94;5007579;28;20194;-71
2023/02/21 03:58:16;;;;;;;12.45;8.98;;;;;;;9.41;100.00;100567.97;5014649;28;20221;-71
2023/02/21 04:00:46;;;;;;;13.77;8.55;;;;;;;9.44;100.00;100565.69;5014116;28;20285;-69
2023/02/21 04:03:18;;;;;;;11.17;8.40;;;;;;;9.46;100.00;100577.13;5041593;28;20221;-69
2023/02/21 04:06:04;;;;;;;12.27;8.37;;;;;;;9.49;100.00;100579.41;5013864;28;20547;-69
2023/02/21 04:08:34;;;;;;;10.73;8.43;;;;;;;9.55;100.00;100567.78;5013885;28;20437;-70
2023/02/21 04:11:06;;;;;;;9.48;7.60;;;;;;;9.60;100.00;100575.28;5040103;28;20220;-69
2023/02/21 04:13:37;;;;;;;13.60;9.10;;;;;;;9.65;100.00;100582.78;5024960;28;20221;-70
2023/02/21 04:16:07;;;;;;;12.23;8.30;;;;;;;9.62;100.00;100567.00;5029810;28;20523;-70
2023/02/21 04:18:37;;;;;;;9.00;7.38;;;;;;;9.69;100.00;100579.47;5010339;28;20438;-70
2023/02/21 04:21:09;;;;;;;10.18;7.07;;;;;;;9.72;100.00;100580.94;5011072;28;20197;-71
2023/02/21 04:23:39;;;;;;;8.70;6.57;;;;;;;9.72;100.00;100589.06;5013670;28;20189;-68
2023/02/21 04:26:11;;;;;;;10.55;7.65;;;;;;;9.75;100.00;100592.16;5034563;28;20207;-70
2023/02/21 04:28:51;;;;;;;8.67;6.57;;;;;;;9.78;100.00;100599.84;5011536;28;20208;-70
2023/02/21 04:31:21;;;;;;;11.40;7.83;;;;;;;9.76;100.00;100596.53;5018404;28;20459;-69
2023/02/21 04:33:52;;;;;;;12.30;7.13;;;;;;;9.80;100.00;100596.97;5015486;28;20845;-70
2023/02/21 04:36:39;;;;;;;11.13;6.68;;;;;;;9.77;100.00;100603.63;5010533;28;20439;-70
2023/02/21 04:39:10;;;;;;;11.40;8.10;;;;;;;9.86;100.00;100596.16;5012089;28;20239;-69
2023/02/21 04:41:41;;;;;;;10.75;7.60;;;;;;;9.84;100.00;100590.94;5011203;28;20446;-70
2023/02/21 04:44:11;;;;;;;12.30;8.03;;;;;;;9.84;100.00;100598.22;5014298;28;20288;-70
2023/02/21 04:46:41;;;;;;;10.23;6.90;;;;;;;9.79;100.00;100596.13;5011311;28;20460;-69
2023/02/21 04:49:12;;;;;;;10.03;7.40;;;;;;;9.77;100.00;100598.22;5010137;28;20198;-69
2023/02/21 04:51:43;;;;;;;7.95;6.25;;;;;;;9.79;100.00;100589.88;5032656;28;20425;-71
2023/02/21 04:54:12;;;;;;;9.57;7.20;;;;;;;9.78;100.00;100589.03;5019505;28;20193;-70
2023/02/21 04:56:44;;;;;;;11.23;8.63;;;;;;;9.71;100.00;100599.03;5020821;28;20439;-70
2023/02/21 04:59:13;;;;;;;11.23;7.20;;;;;;;9.59;100.00;100606.88;5032392;28;20431;-72
2023/02/21 05:01:42;;;;;;;10.73;7.00;;;;;;;9.45;100.00;100607.03;5028147;28;20407;-71
2023/02/21 05:04:12;;;;;;;11.40;8.27;;;;;;;9.41;100.00;100613.88;5031146;28;20801;-70
2023/02/21 05:06:41;;;;;;;9.48;6.80;;;;;;;9.39;100.00;100602.44;5007794;28;20317;-70
2023/02/21 05:09:11;;;;;;;12.30;8.02;;;;;;;9.37;100.00;100612.63;5029086;28;20605;-71
2023/02/21 05:11:42;;;;;;;15.40;10.27;;;;;;;9.34;100.00;100602.22;5009775;28;20197;-71
2023/02/21 05:14:11;;;;;;;17.38;11.15;;;;;;;9.33;100.00;100595.97;5010696;28;20215;-71
2023/02/21 05:16:41;;;;;;;13.73;9.57;;;;;;;9.38;100.00;100603.47;5018080;28;20270;-70
2023/02/21 05:19:10;;;;;;;12.88;8.95;;;;;;;9.37;100.00;100599.09;5034482;28;20200;-71
2023/02/21 05:21:40;;;;;;;11.30;7.80;;;;;;;9.28;100.00;100603.00;5008163;28;20203;-70
2023/02/21 05:24:10;;;;;;;16.83;9.93;;;;;;;9.27;100.00;100601.34;5014235;28;20204;-69
2023/02/21 05:26:39;;;;;;;15.10;8.98;;;;;;;9.22;100.00;100598.41;5024466;28;20205;-70
2023/02/21 05:29:10;;;;;;;15.15;8.75;;;;;;;9.20;100.00;100597.78;5010426;28;20284;-69
2023/02/21 05:31:39;;;;;;;15.32;9.63;;;;;;;9.21;100.00;100599.44;5013648;28;20568;-71
2023/02/21 05:34:09;;;;;;;12.27;8.73;;;;;;;9.20;100.00;100601.31;5015765;28;20726;-70
2023/02/21 05:36:38;;;;;;;15.52;9.35;;;;;;;9.16;100.00;100614.38;5024908;28;20218;-70
2023/02/21 05:39:09;;;;;;;12.13;8.45;;;;;;;9.18;100.00;100613.34;5023064;28;20198;-68
2023/02/21 05:41:39;;;;;;;14.73;9.48;;;;;;;9.19;100.00;100607.75;5017305;28;20221;-71
2023/02/21 05:44:10;;;;;;;12.52;7.88;;;;;;;9.15;100.00;100609.16;5047265;28;20215;-69
2023/02/21 05:46:39;;;;;;;11.02;7.85;;;;;;;9.16;100.00;100611.69;5037021;28;20220;-71
2023/02/21 05:49:08;;;;;;;15.20;9.68;;;;;;;9.14;100.00;100619.16;5038440;28;20557;-71
2023/02/21 05:51:40;;;;;;;15.13;8.30;;;;;;;9.15;100.00;100620.81;5012023;28;20190;-70
2023/02/21 05:54:17;;;;;;;15.00;9.80;;;;;;;9.12;100.00;100621.22;5031360;28;20231;-70
2023/02/21 05:56:48;;;;;;;11.33;7.40;;;;;;;9.12;100.00;100631.16;5017032;28;20220;-71
2023/02/21 05:59:21;;;;;;;12.85;7.63;;;;;;;9.13;100.00;100628.28;5031493;28;20426;-70
2023/02/21 06:01:51;;;;;;;13.82;9.07;;;;;;;9.11;100.00;100630.34;5039897;28;20259;-69
2023/02/21 06:04:46;;;;;;;9.82;7.43;;;;;;;9.16;100.00;100638.66;5036741;28;20202;-70
2023/02/21 06:07:17;;;;;;;10.95;7.47;;;;;;;9.16;100.00;100637.84;5018201;28;20274;-70
2023/02/21 06:09:47;;;;;;;11.38;8.02;;;;;;;9.18;100.00;100651.16;5023052;28;20697;-69
2023/02/21 06:12:19;;;;;;;12.90;9.30;;;;;;;9.10;100.00;100662.94;5012360;28;20209;-70
2023/02/21 06:14:56;;;;;;;15.45;9.63;;;;;;;9.13;100.00;100665.25;5039881;28;20214;-69
2023/02/21 06:17:26;;;;;;;13.35;8.35;;;;;;;9.13;100.00;100666.06;5027565;28;20585;-70
2023/02/21 06:19:57;;;;;;;11.52;7.72;;;;;;;9.07;100.00;100666.88;5039249;28;20190;-70
2023/02/21 06:22:27;;;;;;;12.63;8.02;;;;;;;9.14;100.00;100669.63;5035270;28;20197;-72
2023/02/21 06:24:59;;;;;;;15.15;8.82;;;;;;;9.09;100.00;100678.31;5019840;28;20220;-70
2023/02/21 06:27:39;;;;;;;12.43;9.23;;;;;;;9.07;100.00;100674.13;5016508;28;20221;-70
2023/02/21 06:30:12;;;;;;;13.20;8.48;;;;;;;9.05;100.00;100679.72;5022030;28;20204;-72
2023/02/21 06:32:45;;;;;;;11.23;6.93;;;;;;;9.03;100.00;100681.78;5020061;28;20205;-70
2023/02/21 06:35:16;;;;;;;12.77;9.38;;;;;;;9.03;100.00;100681.78;5015724;28;20193;-71
2023/02/21 06:37:47;;;;;;;14.90;8.10;;;;;;;9.08;100.00;100683.91;5001579;28;20236;-69
2023/02/21 06:40:18;;;;;;;11.02;7.40;;;;;;;9.03;100.00;100684.50;5039588;28;20208;-72
2023/02/21 06:42:50;;;;;;;15.05;6.75;;;;;;;9.05;100.00;100685.09;5034932;28;20187;-72
2023/02/21 06:45:23;;;;;;;13.50;7.53;;;;;;;9.02;100.00;100696.31;5017346;28;20201;-70
2023/02/21 06:47:53;;;;;;;13.40;8.43;;;;;;;9.07;100.00;100696.56;5013636;28;20216;-71
2023/02/21 06:50:24;;;;;;;11.32;7.15;;;;;;;9.07;100.00;100695.72;5005664;28;20599;-71
2023/02/21 06:52:54;;;;;;;10.20;6.25;;;;;;;9.17;100.00;100701.59;5017276;28;20207;-71
2023/02/21 06:55:25;;;;;;;13.75;7.78;;;;;;;9.21;100.00;100700.16;5048498;28;20209;-70
2023/02/21 06:57:55;;;;;;;8.97;6.37;;;;;;;9.19;100.00;100713.06;5015159;28;20205;-70
2023/02/21 07:00:26;;;;;;;11.63;6.73;;;;;;;9.24;100.00;100712.47;5017076;28;20412;-68
2023/02/21 07:02:57;;;;;;;8.00;5.90;;;;;;;9.20;100.00;100727.38;5015695;28;20418;-71
2023/02/21 07:05:28;;;;;;;8.40;5.68;;;;;;;9.16;100.00;100729.63;5013356;28;20554;-71
2023/02/21 07:08:00;;;;;;;10.85;6.30;;;;;;;9.12;100.00;100728.34;5017036;28;20304;-70
2023/02/21 07:10:32;;;;;;;8.53;5.73;;;;;;;9.16;100.00;100735.84;5000804;28;20288;-71
2023/02/21 07:13:02;;;;;;;13.20;6.43;;;;;;;9.22;100.00;100741.50;5035177;28;20969;-72
2023/02/21 07:15:34;;;;;;;5.88;4.65;;;;;;;9.22;100.00;100742.34;5018591;28;20255;-70
2023/02/21 07:18:04;;;;;;;7.60;4.60;;;;;;;9.26;100.00;100740.91;5021283;28;20217;-71
2023/02/21 07:20:35;;;;;;;7.88;5.20;;;;;;;9.36;100.00;100751.38;5032180;28;20193;-70
2023/02/21 07:23:06;;;;;;;9.37;6.03;;;;;;;9.39;100.00;100757.19;5031176;28;20224;-70
2023/02/21 07:25:35;;;;;;;9.45;5.68;;;;;;;9.41;100.00;100757.00;5023690;28;20451;-70
2023/02/21 07:28:32;;;;;;;9.10;4.80;;;;;;;9.34;100.00;100766.94;5006795;28;20770;-68
2023/02/21 07:31:06;;;;;;;9.48;5.20;;;;;;;9.33;100.00;100773.38;5019626;28;20412;-71
2023/02/21 07:33:37;;;;;;;8.18;4.57;;;;;;;9.28;100.00;100770.44;5015011;28;20711;-70
2023/02/21 07:36:08;;;;;;;7.65;4.82;;;;;;;9.31;100.00;100775.44;5039689;28;20687;-71
2023/02/21 07:38:39;;;;;;;4.87;3.80;;;;;;;9.26;100.00;100772.47;5008981;28;20252;-69
2023/02/21 07:41:09;;;;;;;5.05;3.40;;;;;;;9.41;100.00;100773.22;5030980;28;20436;-70
2023/02/21 07:43:39;;;;;;;8.13;4.23;;;;;;;9.42;100.00;100777.59;5040008;28;20233;-69
2023/02/21 07:46:13;;;;;;;6.05;3.25;;;;;;;9.47;100.00;100775.97;5038640;28;20506;-71
2023/02/21 07:48:43;;;;;;;5.72;3.05;;;;;;;9.59;100.00;100773.53;5038466;28;20577;-70
2023/02/21 07:51:13;;;;;;;4.80;3.00;;;;;;;9.64;100.00;100771.06;5015617;28;20216;-70
2023/02/21 07:53:45;;;;;;;3.90;2.87;;;;;;;9.66;100.00;100779.00;5030752;28;20967;-71
2023/02/21 07:56:14;;;;;;;5.07;2.33;;;;;;;9.72;100.00;100779.03;5038216;28;20446;-71
2023/02/21 07:58:44;;;;;;;3.97;2.63;;;;;;;9.75;100.00;100781.31;5042406;28;20409;-70
2023/02/21 08:01:17;;;;;;;2.63;2.20;;;;;;;9.76;100.00;100785.69;5021565;28;20485;-71
2023/02/21 08:03:47;;;;;;;2.60;1.80;;;;;;;9.63;100.00;100782.09;5012911;28;20297;-69
2023/02/21 08:06:18;;;;;;;3.28;2.42;;;;;;;9.62;100.00;100789.38;5007140;28;20244;-70
2023/02/21 08:08:49;;;;;;;3.92;2.70;;;;;;;9.61;100.00;100793.09;5024412;28;20223;-70
2023/02/21 08:11:19;;;;;;;3.00;1.80;;;;;;;9.56;100.00;100803.66;5021607;28;20568;-69
2023/02/21 08:13:50;;;;;;;3.20;2.13;;;;;;;9.79;100.00;100812.31;5031604;28;20467;-70
2023/02/21 08:16:22;;;;;;;4.27;2.20;;;;;;;9.90;100.00;100825.28;5013691;28;20566;-71
2023/02/21 08:18:52;;;;;;;2.73;2.20;;;;;;;9.87;100.00;100812.19;5028730;28;20434;-70
2023/02/21 08:21:22;;;;;;;2.83;1.80;;;;;;;10.10;100.00;100816.44;5015511;28;20429;-69
2023/02/21 08:24:20;;;;;;;2.43;1.97;;;;;;;10.19;100.00;100816.09;5019276;28;20515;-71
2023/02/21 08:26:53;;;;;;;4.03;2.20;;;;;;;9.98;100.00;100819.69;5029841;28;20436;-70
2023/02/21 08:29:24;;;;;;;10.63;1.73;;;;;;;9.90;100.00;100821.75;5048788;28;20414;-69
2023/02/21 08:31:58;;;;;;;2.40;1.73;;;;;;;9.96;100.00;100831.75;5035786;28;20431;-70
2023/02/21 08:34:29;;;;;;;1.70;1.40;;;;;;;9.88;98.47;100830.03;5014976;28;20462;-72
2023/02/21 08:37:00;;;;;;;2.03;1.53;;;;;;;9.88;96.76;100821.09;5031308;28;20461;-70
2023/02/21 08:39:30;;;;;;;2.53;1.27;;;;;;;10.01;96.58;100832.84;5017952;28;20450;-70
2023/02/21 08:42:00;;;;;;;3.67;2.83;;;;;;;10.11;97.16;100831.63;5037833;28;20428;-71
2023/02/21 08:44:30;;;;;;;2.60;1.43;;;;;;;9.95;95.80;100830.94;5028773;28;20453;-71
2023/02/21 08:47:02;;;;;;;1.73;1.57;;;;;;;9.99;95.00;100843.00;5016326;28;20439;-71
2023/02/21 08:49:32;;;;;;;2.90;2.30;;;;;;;10.11;94.73;100837.03;5018189;28;20425;-70
2023/02/21 08:52:01;;;;;;;1.90;1.50;;;;;;;10.26;94.48;100841.28;5045545;28;20423;-71
2023/02/21 08:54:32;;;;;;;1.53;0.97;;;;;;;10.37;92.56;100837.19;5009946;28;20486;-69
2023/02/21 08:57:02;;;;;;;2.30;1.63;;;;;;;10.11;90.72;100853.25;5042520;28;20455;-70
2023/02/21 08:59:36;;;;;;;4.07;2.40;;;;;;;10.03;91.65;100852.38;5036888;28;20449;-69
2023/02/21 09:02:11;;;;;;;3.17;2.50;;;;;;;9.94;91.86;100848.19;5030073;28;20501;-70
2023/02/21 09:04:41;;;;;;;1.80;1.40;;;;;;;9.99;92.82;100851.13;5011314;28;20452;-68
2023/02/21 09:07:12;;;;;;;1.63;1.20;;;;;;;10.02;92.54;100845.28;5023500;28;20443;-70
2023/02/21 09:09:41;;;;;;;2.80;1.43;;;;;;;10.10;92.10;100852.44;5026612;28;20840;-69
2023/02/21 09:12:11;;;;;;;2.57;1.30;;;;;;;10.06;92.21;100844.91;5035367;28;20826;-72
2023/02/21 09:14:43;;;;;;;2.33;1.63;;;;;;;10.15;91.54;100841.00;5011631;28;20558;-69
2023/02/21 09:17:17;;;;;;;1.67;1.30;;;;;;;10.26;89.48;100848.59;5005706;28;20453;-70
2023/02/21 09:19:46;;;;;;;7.77;1.93;;;;;;;10.23;88.65;100857.09;5018894;28;20451;-69
2023/02/21 09:22:17;;;;;;;1.93;1.27;;;;;;;10.23;88.68;100854.38;5037066;28;20807;-70
2023/02/21 09:24:48;;;;;;;3.00;1.53;;;;;;;10.28;87.90;100850.03;5018275;28;20421;-70
2023/02/21 09:27:18;;;;;;;4.67;1.60;;;;;;;10.43;87.40;100860.72;5008788;28;20466;-71
2023/02/21 09:29:48;;;;;;;5.47;1.80;;;;;;;10.44;84.99;100859.69;5015226;28;20420;-70
2023/02/21 09:32:19;;;;;;;3.03;1.50;;;;;;;10.44;83.14;100867.81;5009931;28;20418;-71
2023/02/21 09:34:48;;;;;;;7.57;1.73;;;;;;;10.48;81.21;100876.34;5038863;28;21076;-69
2023/02/21 09:37:17;;;;;;;2.63;1.50;;;;;;;10.39;80.38;100873.00;5018015;28;20518;-72
2023/02/21 09:39:47;;;;;;;5.30;1.40;;;;;;;10.38;77.75;100876.72;5041691;28;20451;-70
2023/02/21 09:42:18;;;;;;;7.90;2.13;;;;;;;10.41;77.25;100876.31;5013633;28;20452;-71
2023/02/21 09:44:49;;;;;;;4.00;2.13;;;;;;;10.51;76.98;100881.34;5034944;28;20436;-69
2023/02/21 09:47:30;;;;;;;13.40;2.73;;;;;;;10.62;75.92;100883.47;5037907;28;20459;-70
2023/02/21 09:50:05;;;;;;;6.13;3.60;;;;;;;10.53;76.70;100885.53;5012751;28;20797;-70
2023/02/21 09:52:38;;;;;;;8.93;2.17;;;;;;;10.55;76.36;100871.81;5033308;28;20399;-70
2023/02/21 09:55:22;;;;;;;7.10;1.43;;;;;;;10.83;76.51;100895.00;5016667;28;20447;-70
2023/02/21 09:57:51;;;;;;;4.37;1.73;;;;;;;10.63;77.04;100879.75;5035423;28;20458;-70
2023/02/21 10:00:24;;;;;;;5.20;2.50;;;;;;;10.54;77.56;100897.19;5033965;28;20430;-70
2023/02/21 10:03:03;;;;;;;6.47;1.70;;;;;;;10.63;77.44;100891.41;5015240;28;20419;-70
2023/02/21 10:05:42;;;;;;;6.20;1.73;;;;;;;10.74;78.13;100880.00;5024932;28;20929;-71
2023/02/21 10:08:29;;;;;;;3.77;1.23;;;;;;;10.70;76.75;100878.72;5033045;28;21037;-70
2023/02/21 10:11:03;;;;;;;8.33;1.97;;;;;;;10.78;74.59;100889.38;5044795;28;20797;-71
2023/02/21 10:13:43;;;;;;;7.47;2.30;;;;;;;10.66;74.26;100890.97;5018222;28;20422;-70
2023/02/21 10:16:17;;;;;;;10.13;2.20;;;;;;;10.56;74.67;100901.34;5018189;28;20544;-70
2023/02/21 10:19:00;;;;;;;6.57;2.27;;;;;;;10.68;73.82;100888.09;5017777;28;20454;-70
2023/02/21 10:21:35;;;;;;;4.83;2.00;;;;;;;10.66;74.35;100901.81;5032761;28;20434;-68
2023/02/21 10:24:12;;;;;;;7.43;2.57;;;;;;;10.79;73.62;100906.47;5010720;28;20430;-68
2023/02/21 10:26:47;;;;;;;10.57;3.20;;;;;;;10.81;74.36;100899.78;5016136;28;20455;-70
2023/02/21 10:29:23;;;;;;;4.80;1.87;;;;;;;10.84;73.62;100910.19;5015935;28;20920;-66
2023/02/21 10:31:57;;;;;;;3.90;1.53;;;;;;;10.52;74.05;100915.50;5043077;28;20490;-68
2023/02/21 10:34:31;;;;;;;6.60;2.53;;;;;;;10.41;74.81;100925.00;5020017;28;20818;-68
2023/02/21 10:37:07;;;;;;;8.20;2.07;;;;;;;10.57;75.12;100924.69;5027128;28;20979;-69
2023/02/21 10:39:45;;;;;;;14.03;2.50;;;;;;;10.51;75.73;100906.53;5036935;28;20418;-69
2023/02/21 10:42:26;;;;;;;6.30;1.80;;;;;;;10.73;75.41;100918.91;5042240;28;20417;-71
2023/02/21 10:44:56;;;;;;;7.30;1.60;;;;;;;10.79;75.32;100928.94;5021727;28;20986;-70
2023/02/21 10:47:34;;;;;;;3.03;1.53;;;;;;;10.53;75.71;100915.28;5018809;28;20439;-70
2023/02/21 10:50:10;;;;;;;7.43;2.10;;;;;;;10.76;76.07;100923.09;5013790;28;20451;-70
2023/02/21 10:52:49;;;;;;;7.83;2.60;;;;;;;10.90;75.24;100913.97;5028222;28;20421;-69
2023/02/21 10:55:21;;;;;;;8.00;2.00;;;;;;;10.86;76.05;100916.25;5016868;28;20531;-69
2023/02/21 10:58:08;;;;;;;7.40;2.33;;;;;;;11.15;75.25;100923.19;5019008;28;20447;-69
2023/02/21 11:00:46;;;;;;;11.37;5.10;;;;;;;11.20;73.93;100928.84;5025326;28;20441;-70
2023/02/21 11:03:26;;;;;;;14.50;2.77;;;;;;;10.93;75.28;100928.97;5011041;28;20470;-67
2023/02/21 11:06:00;;;;;;;9.07;1.63;;;;;;;11.21;75.22;100916.13;5018070;28;20429;-68
2023/02/21 11:08:38;;;;;;;10.03;4.43;;;;;;;11.03;73.20;100907.78;5037225;28;20437;-69
2023/02/21 11:11:09;;;;;;;4.73;1.97;;;;;;;11.03;74.81;100921.31;5017961;28;20467;-69
2023/02/21 11:13:39;;;;;;;6.30;2.90;;;;;;;11.17;73.92;100926.56;5015765;28;20531;-68
2023/02/21 11:16:12;;;;;;;5.17;1.90;;;;;;;11.21;72.98;100925.09;5022505;28;20442;-69
2023/02/21 11:19:04;;;;;;;6.23;2.40;;;;;;;11.17;72.23;100923.00;5033212;28;20413;-67
2023/02/21 11:21:36;;;;;;;6.17;1.87;;;;;;;10.98;71.53;100923.78;5018526;28;20426;-68
2023/02/21 11:24:08;;;;;;;7.90;2.60;;;;;;;10.89;71.76;100918.53;5023940;28;20487;-70
2023/02/21 11:26:45;;;;;;;8.70;2.37;;;;;;;10.88;71.19;100916.91;5020468;28;20434;-69
2023/02/21 11:29:18;;;;;;;8.03;2.33;;;;;;;10.92;71.70;100921.91;5022067;28;20453;-68
2023/02/21 11:31:48;;;;;;;5.80;2.10;;;;;;;10.87;71.83;100920.63;5016644;28;20478;-68
2023/02/21 11:34:19;;;;;;;10.30;2.00;;;;;;;11.18;70.99;100919.25;5012458;28;20494;-70
2023/02/21 11:36:52;;;;;;;9.87;2.50;;;;;;;11.20;69.47;100914.47;5040468;28;20484;-67
2023/02/21 11:39:28;;;;;;;6.90;1.63;;;;;;;11.05;70.34;100905.69;5008577;28;20852;-70
2023/02/21 11:42:02;;;;;;;12.40;2.10;;;;;;;11.20;69.12;100917.16;5028689;28;20424;-70
2023/02/21 11:44:34;;;;;;;14.40;2.90;;;;;;;11.18;67.48;100913.84;5020507;28;20426;-69
2023/02/21 11:47:14;;;;;;;4.03;1.63;;;;;;;11.15;68.27;100923.19;5039089;28;20463;-69
2023/02/21 11:49:53;;;;;;;10.80;2.60;;;;;;;11.15;67.59;100920.50;5036037;28;20888;-70
2023/02/21 11:52:32;;;;;;;3.10;1.93;;;;;;;10.78;67.70;100916.44;5020419;28;20497;-69
2023/02/21 11:55:02;;;;;;;6.07;2.20;;;;;;;11.07;66.62;100922.56;5042319;28;20424;-68
2023/02/21 11:57:43;;;;;;;9.63;3.40;;;;;;;11.23;65.83;100919.47;5013163;28;20455;-67
2023/02/21 12:00:25;;;;;;;7.43;2.10;;;;;;;11.36;65.62;100927.63;5025568;28;20450;-69
2023/02/21 12:03:21;;;;;;;8.10;2.03;;;;;;;11.33;65.03;100931.56;5028965;28;20444;-69
2023/02/21 12:05:58;;;;;;;12.70;2.70;;;;;;;11.34;63.88;100941.38;5044328;28;20457;-69
2023/02/21 12:08:46;;;;;;;7.07;2.97;;;;;;;11.21;64.72;100924.25;5024156;28;20438;-68
2023/02/21 12:11:31;;;;;;;10.00;2.50;;;;;;;10.99;65.80;100928.19;5017177;28;21020;-67
2023/02/21 12:14:25;;;;;;;5.90;1.67;;;;;;;10.92;65.58;100921.91;5034303;28;20441;-68
2023/02/21 12:17:05;;;;;;;11.63;1.80;;;;;;;10.97;66.02;100924.81;5049252;28;20491;-68
2023/02/21 12:20:01;;;;;;;10.63;1.83;;;;;;;10.86;65.53;100929.78;5020664;28;20932;-68
2023/02/21 12:22:47;;;;;;;13.53;2.40;;;;;;;10.99;66.18;100925.47;5036768;28;20409;-69
2023/02/21 12:25:29;;;;;;;7.37;2.80;;;;;;;11.16;65.99;100929.47;5011156;28;20543;-71
2023/02/21 12:28:06;;;;;;;10.80;2.70;;;;;;;11.33;65.57;100939.69;5046826;28;20478;-70
2023/02/21 12:31:10;;;;;;;7.07;2.90;;;;;;;11.13;64.63;100938.00;5011623;28;20833;-68
2023/02/21 12:33:46;;;;;;;9.43;1.67;;;;;;;10.97;64.45;100924.81;5021034;28;20422;-69
2023/02/21 12:36:34;;;;;;;8.57;2.77;;;;;;;11.01;64.30;100929.63;5041543;28;20872;-69
2023/02/21 12:39:13;;;;;;;5.97;3.10;;;;;;;11.18;64.41;100930.09;5042576;28;20422;-67
2023/02/21 12:42:17;;;;;;;8.70;2.30;;;;;;;11.05;64.77;100932.75;5022287;28;20548;-70
2023/02/21 12:44:57;;;;;;;5.33;2.27;;;;;;;11.11;64.38;100927.38;5036868;28;20425;-67
2023/02/21 12:47:32;;;;;;;9.93;2.40;;;;;;;11.26;64.08;100929.91;5035845;28;20969;-68
2023/02/21 12:50:07;;;;;;;14.67;3.40;;;;;;;11.48;62.21;100936.78;5017867;28;20429;-69
2023/02/21 12:52:41;;;;;;;5.50;2.20;;;;;;;11.33;62.22;100934.28;5034081;28;20414;-67
2023/02/21 12:55:20;;;;;;;8.53;2.53;;;;;;;11.39;62.51;100938.03;5029466;28;20424;-68
2023/02/21 12:57:58;;;;;;;11.23;2.83;;;;;;;11.20;63.19;100936.97;5018580;28;20442;-70
2023/02/21 13:00:32;;;;;;;5.00;3.23;;;;;;;11.21;63.57;100926.97;5025374;28;20410;-69
2023/02/21 13:03:23;;;;;;;5.20;2.60;;;;;;;11.08;62.76;100926.94;5009431;28;20990;-70
2023/02/21 13:10:07;;;;;;;13.33;2.77;;;;;;;10.75;62.44;100927.66;5013904;28;20449;-69
2023/02/21 13:12:44;;;;;;;4.07;1.77;;;;;;;10.67;62.69;100927.84;5043282;28;20427;-70
2023/02/21 13:15:22;;;;;;;12.03;2.30;;;;;;;10.82;61.85;100923.13;5019484;28;20480;-69
2023/02/21 13:18:00;;;;;;;6.63;2.10;;;;;;;10.89;61.66;100920.44;5040687;28;20471;-70
2023/02/21 13:20:35;;;;;;;14.17;2.20;;;;;;;10.79;61.35;100917.28;5026865;28;20461;-69
2023/02/21 13:23:08;;;;;;;13.30;3.53;;;;;;;10.84;62.35;100918.31;5016127;28;20952;-69
2023/02/21 13:25:53;;;;;;;6.03;1.70;;;;;;;10.78;61.91;100926.44;5041184;28;20435;-69
2023/02/21 13:28:25;;;;;;;7.37;2.33;;;;;;;10.70;62.50;100930.13;5044491;28;20432;-68
2023/02/21 13:31:01;;;;;;;7.23;1.90;;;;;;;10.60;63.02;100918.84;5033636;28;20781;-69
2023/02/21 13:33:42;;;;;;;9.63;1.87;;;;;;;10.84;63.60;100921.03;5017009;28;20426;-70
2023/02/21 13:36:26;;;;;;;7.53;2.40;;;;;;;10.95;63.16;100916.06;5036283;28;20527;-70
2023/02/21 13:39:12;;;;;;;5.57;2.70;;;;;;;10.94;62.70;100911.72;5036592;28;20468;-69
2023/02/21 13:41:45;;;;;;;12.87;2.83;;;;;;;10.93;63.40;100913.56;5029319;28;20454;-70
2023/02/21 13:44:22;;;;;;;13.50;2.37;;;;;;;10.97;63.61;100919.41;5035225;28;20439;-70
2023/02/21 13:47:12;;;;;;;7.83;2.67;;;;;;;10.95;63.03;100910.63;5029017;28;21661;-68
2023/02/21 13:49:55;;;;;;;6.07;2.60;;;;;;;10.89;63.65;100923.97;5011134;28;20427;-70
2023/02/21 13:52:59;;;;;;;6.67;2.07;;;;;;;10.88;63.66;100922.31;5027376;28;20609;-69
2023/02/21 13:55:31;;;;;;;9.00;2.07;;;;;;;10.90;64.06;100922.94;5024355;28;20454;-69
2023/02/21 13:58:30;;;;;;;8.80;4.50;;;;;;;11.02;63.33;100916.94;5054705;28;20472;-68
2023/02/21 14:01:30;;;;;;;9.10;2.87;;;;;;;10.85;63.18;100917.28;5032729;28;20783;-70
2023/02/21 14:04:21;;;;;;;12.73;2.30;;;;;;;10.61;63.99;100923.22;5039608;28;20921;-69
2023/02/21 14:06:57;;;;;;;7.50;3.33;;;;;;;10.61;64.28;100925.94;5039684;28;20856;-68
2023/02/21 14:09:36;;;;;;;13.93;2.70;;;;;;;10.59;64.57;100925.31;5041391;28;20488;-70
2023/02/21 14:12:07;;;;;;;7.97;2.23;;;;;;;10.64;64.56;100930.13;5029716;28;20439;-70
2023/02/21 14:14:41;;;;;;;9.53;1.80;;;;;;;10.52;64.75;100921.75;5043907;28;20427;-69
2023/02/21 14:17:13;;;;;;;13.97;3.17;;;;;;;10.41;65.51;100919.59;5020305;28;20453;-71
2023/02/21 14:19:50;;;;;;;7.93;2.60;;;;;;;10.39;65.79;100916.28;5023197;28;20425;-69